Tura, Russia
Current Conditions -  °F | °C
As of 2:00 AM on Saturday 22 Nov 2014 (Local Time) from UIBB Reporting Station
Snow Showers Snow Showers  
Wind Chill: 10°   Ceiling: 2000
Heat Index: 21°   Visibility: 3mi
Dew Point: 18°   Wind: 11mph
Humidity: 86%   Direction: 220°SW
Pressure: 29.62"   Gusts: NA
Location:  64.28°N, 100.25°E
Report Text: UIBB 211900Z 22005MPS 5000 -SHSN OVC020CB M06/M08 Q1003 NOSIGRMK QFE710/0946 30491030
Loading
Personal Weather Stations






























Interactive Weather Map New forecast layout! Learn more

10-Day Weather Forecast

Advertisements
Track Severe Weather on mobile